Latest Weather Observations for Lochington

IDQ60801

Issued at 12:02 pm EST Wednesday 8 July 2015 (issued every 30 minutes, with the page automatically refreshed every 10 minutes)

About weather observations | Map of weather stations | Latest weather observations for QLD | Other Formats
Station Details ID: 035139 Name: LOCHINGTON Lat: -23.94 Lon: 147.53 Height: 267.19 m
Data from the previous 72 hours. | See also: Recent months at Lochington
Date/Time
EST
Temp
°C
App
Temp
°C
Dew
Point
Rel
Hum
%
Delta-T
°C
Wind Press
QNH
hPa
Press
MSL
hPa
Rain
since 9 am
mm
Dir
 
Spd
km/h
Gust
km/h
Spd
kts
Gust
kts
08/12:00pm 20.0 15.2 0.5 27 8.8 ENE 15 24 8 13 1021.8 1021.5 0.0
08/11:30am 19.6 15.3 1.1 29 8.4 E 13 22 7 12 1022.1 1021.8 0.0
08/11:00am 18.7 14.4 1.2 31 7.9 E 13 22 7 12 1022.5 1022.2 0.0
08/10:00am 16.9 13.7 0.5 33 7.2 ENE 7 15 4 8 1022.8 1022.5 0.0
08/09:30am 15.9 12.8 0.1 34 6.8 ENE 6 13 3 7 1022.9 1022.6 0.0
08/09:00am 15.1 11.5 0.5 37 6.3 ESE 9 17 5 9 1022.7 1022.4 0.0
08/08:30am 14.2 11.1 1.5 42 5.6 E 7 11 4 6 1022.5 1022.2 0.0
08/08:00am 11.2 9.0 3.3 58 3.5 E 4 6 2 3 1022.4 1022.1 0.0
08/07:30am 6.7 4.4 2.6 75 1.7 ENE 4 7 2 4 1021.9 1021.6 0.0
08/07:00am 4.7 2.9 1.0 77 1.5 CALM 0 2 0 1 1021.5 1021.2 0.0
08/06:30am 5.2 2.7 1.3 76 1.6 E 4 7 2 4 1021.2 1020.9 0.0
08/06:00am 5.3 3.1 1.2 75 1.6 WNW 2 4 1 2 1020.8 1020.5 0.0
08/05:00am 7.5 5.3 1.1 64 2.6 ESE 2 6 1 3 1020.2 1019.9 0.0
08/04:30am 9.5 6.9 0.7 54 3.6 ENE 4 6 2 3 1020.1 1019.8 0.0
08/04:00am 11.3 8.4 1.3 50 4.2 ESE 6 7 3 4 1019.8 1019.5 0.0
08/03:30am 9.3 7.1 1.0 56 3.4 ESE 2 2 1 1 1019.7 1019.4 0.0
08/03:00am 8.3 5.3 0.5 58 3.2 WNW 6 7 3 4 1019.5 1019.2 0.0
08/02:30am 10.3 8.1 0.9 52 3.9 S 2 4 1 2 1019.6 1019.3 0.0
08/02:00am 10.4 8.4 0.2 49 4.2 CALM 0 0 0 0 1019.6 1019.3 0.0
08/01:30am 11.2 8.2 0.6 48 4.4 WNW 6 7 3 4 1019.6 1019.3 0.0
08/01:00am 12.7 10.0 0.5 43 5.2 NW 4 6 2 3 1019.6 1019.3 0.0
08/12:30am 13.8 10.5 0.1 39 5.8 ESE 7 15 4 8 1019.1 1018.8 0.0
08/12:00am 14.3 9.9 0.2 38 6.0 E 13 19 7 10 1018.9 1018.6 0.0
 
Date/Time
EST
Temp
°C
App
Temp
°C
Dew
Point
Rel
Hum
%
Delta-T
°C
Wind Press
QNH
hPa
Press
MSL
hPa
Rain
since 9 am
mm
Dir
 
Spd
km/h
Gust
km/h
Spd
kts
Gust
kts
07/11:30pm 14.5 9.9 1.4 41 5.8 ESE 15 22 8 12 1019.1 1018.8 0.0
07/11:00pm 15.2 10.7 2.4 42 5.8 E 15 22 8 12 1019.1 1018.8 0.0
07/10:30pm 14.8 11.4 4.2 49 5.0 ESE 11 17 6 9 1019.0 1018.7 0.0
07/10:00pm 14.3 11.6 5.4 55 4.2 E 9 13 5 7 1018.8 1018.5 0.0
07/09:30pm 13.5 11.7 5.4 58 3.9 ENE 4 6 2 3 1018.7 1018.4 0.0
07/09:00pm 14.0 12.0 6.1 59 3.8 NE 6 13 3 7 1018.7 1018.4 0.0
07/08:30pm 13.8 12.8 5.7 58 3.9 CALM 0 0 0 0 1018.4 1018.1 0.0
07/08:00pm 14.5 13.1 5.6 55 4.3 SSE 2 2 1 1 1018.2 1017.9 0.0
07/07:30pm 15.1 14.1 5.6 53 4.6 CALM 0 2 0 1 1018.2 1017.9 0.0
07/07:00pm 17.3 15.5 5.3 45 5.8 ESE 4 6 2 3 1018.1 1017.8 0.0
07/06:30pm 18.2 16.3 5.1 42 6.4 ESE 4 4 2 2 1017.7 1017.4 0.0
07/06:00pm 20.2 18.3 4.7 36 7.6 S 4 6 2 3 1017.5 1017.2 0.0
07/05:30pm 21.9 19.9 4.5 32 8.6 S 4 4 2 2 1017.2 1016.9 0.0
07/05:00pm 23.4 21.9 4.9 30 9.3 WNW 2 6 1 3 1017.0 1016.7 0.0
07/04:30pm 23.9 22.0 4.8 29 9.7 SSE 4 7 2 4 1016.8 1016.5 0.0
07/04:00pm 24.5 22.2 4.8 28 10.0 S 6 11 3 6 1016.6 1016.2 0.0
07/03:30pm 24.7 22.6 6.0 30 9.7 WSW 6 9 3 5 1016.5 1016.1 0.0
07/03:00pm 24.5 22.2 5.8 30 9.7 WNW 7 13 4 7 1016.5 1016.1 0.0
07/02:30pm 24.3 22.3 6.1 31 9.4 NE 6 13 3 7 1016.6 1016.2 0.0
07/02:00pm 24.0 21.5 6.7 33 9.0 NNE 9 15 5 8 1016.7 1016.3 0.0
07/01:30pm 24.9 23.3 8.0 34 9.1 ESE 6 9 3 5 1016.9 1016.6 0.0
07/01:00pm 23.7 22.0 8.2 37 8.3 NE 7 15 4 8 1017.3 1017.0 0.0
07/12:30pm 23.2 21.5 7.7 37 8.2 NE 6 17 3 9 1017.7 1017.4 0.0
07/12:00pm 22.6 20.6 7.2 37 8.1 NE 7 13 4 7 1018.3 1018.0 0.0
07/11:30am 22.4 20.8 7.8 39 7.7 E 6 11 3 6 1018.7 1018.4 0.0
07/11:00am 22.6 21.1 8.3 40 7.6 E 6 17 3 9 1019.0 1018.7 0.0
07/10:30am 20.8 19.4 7.1 41 7.1 NE 4 7 2 4 1019.2 1018.9 0.0
07/10:00am 20.7 18.1 7.7 43 6.8 ESE 11 17 6 9 1019.5 1019.2 0.0
07/09:30am 18.2 16.6 8.2 52 5.2 ESE 6 9 3 5 1019.7 1019.4 0.0
07/09:00am 15.0 14.2 8.3 64 3.4 SW 2 2 1 1 1019.7 1019.4 0.0
07/08:30am 12.7 11.6 8.6 76 2.1 WNW 4 6 2 3 1019.5 1019.2 0.0
07/08:00am 10.8 9.6 8.2 84 1.3 WNW 4 6 2 3 1019.3 1019.0 0.0
07/07:30am 8.3 6.4 6.9 91 0.7 W 6 7 3 4 1018.9 1018.6 0.0
07/07:00am 7.7 5.8 6.5 92 0.6 WNW 6 7 3 4 1018.5 1018.2 0.0
07/06:30am 8.8 7.7 7.1 89 0.8 NW 2 4 1 2 1018.2 1017.9 0.0
07/06:00am 8.9 7.5 7.2 89 0.8 W 4 4 2 2 1017.8 1017.5 0.0
07/05:30am 8.7 6.9 7.2 90 0.7 WNW 6 6 3 3 1017.5 1017.2 0.0
07/05:00am 8.3 6.4 6.9 91 0.7 WNW 6 7 3 4 1017.3 1017.0 0.0
07/04:30am 7.9 6.0 6.7 92 0.6 WNW 6 7 3 4 1017.1 1016.8 0.0
07/04:00am 7.9 5.8 6.0 88 0.9 WSW 6 7 3 4 1017.3 1017.0 0.0
07/03:30am 9.5 8.9 7.4 87 1.0 CALM 0 0 0 0 1017.1 1016.8 0.0
07/03:00am 10.5 9.0 8.6 88 0.9 N 6 13 3 7 1017.3 1017.0 0.0
07/02:30am 9.7 8.4 7.5 86 1.1 WNW 4 6 2 3 1017.3 1017.0 0.0
07/02:00am 9.4 8.0 7.3 87 1.0 WNW 4 4 2 2 1017.4 1017.1 0.0
07/01:30am 9.8 8.5 7.6 86 1.1 WNW 4 6 2 3 1017.4 1017.1 0.0
07/01:00am 10.4 9.6 8.3 87 1.0 WSW 2 4 1 2 1017.5 1017.2 0.0
07/12:30am 9.9 8.5 7.3 84 1.3 W 4 6 2 3 1017.6 1017.3 0.0
07/12:00am 10.5 9.6 7.7 83 1.4 SW 2 4 1 2 1017.7 1017.4 0.0
 
Date/Time
EST
Temp
°C
App
Temp
°C
Dew
Point
Rel
Hum
%
Delta-T
°C
Wind Press
QNH
hPa
Press
MSL
hPa
Rain
since 9 am
mm
Dir
 
Spd
km/h
Gust
km/h
Spd
kts
Gust
kts
06/11:30pm 10.4 9.2 8.2 86 1.1 SSW 4 6 2 3 1017.8 1017.5 0.0
06/11:00pm 10.6 9.4 8.2 85 1.2 SSE 4 4 2 2 1017.7 1017.4 0.0
06/10:30pm 11.4 9.8 7.9 79 1.7 WNW 6 7 3 4 1017.7 1017.4 0.0
06/10:00pm 12.4 11.7 8.5 77 2.0 NNW 2 4 1 2 1017.8 1017.5 0.0
06/09:30pm 12.2 11.7 7.9 75 2.1 CALM 0 6 0 3 1017.7 1017.4 0.0
06/09:00pm 12.9 12.5 8.4 74 2.3 CALM 0 0 0 0 1017.7 1017.4 0.0
06/08:30pm 14.4 14.2 9.0 70 2.8 CALM 0 0 0 0 1017.7 1017.4 0.0
06/08:00pm 15.4 15.4 9.7 69 3.0 CALM 0 0 0 0 1017.5 1017.2 0.0
06/07:30pm 16.2 16.0 8.9 62 3.8 CALM 0 0 0 0 1017.3 1017.0 0.0
06/07:00pm 16.6 16.3 8.6 59 4.1 CALM 0 0 0 0 1017.1 1016.8 0.0
06/06:30pm 18.0 17.7 8.8 55 4.8 CALM 0 0 0 0 1016.9 1016.6 0.0
06/06:00pm 19.6 19.4 8.9 50 5.7 CALM 0 4 0 2 1016.6 1016.2 0.0
06/05:30pm 22.1 21.0 8.6 42 7.2 E 4 4 2 2 1016.3 1015.9 0.0
06/05:00pm 23.5 22.4 8.4 38 8.1 NE 4 6 2 3 1016.2 1015.8 0.0
06/04:30pm 24.8 23.9 9.1 37 8.6 WNW 4 6 2 3 1016.0 1015.7 0.0
06/04:00pm 24.7 23.2 9.0 37 8.6 N 7 9 4 5 1016.0 1015.7 0.0
06/03:30pm 24.4 22.8 8.8 37 8.5 NNW 7 13 4 7 1016.3 1015.9 0.0
06/03:00pm 24.1 22.7 8.9 38 8.3 N 6 7 3 4 1016.4 1016.0 0.0
06/02:30pm 23.9 22.5 9.5 40 7.9 W 7 13 4 7 1016.6 1016.2 0.0
06/02:00pm 23.9 22.5 9.5 40 7.9 NNW 7 17 4 9 1017.0 1016.7 0.0
06/01:30pm 22.9 21.4 9.3 42 7.4 WNW 7 17 4 9 1017.4 1017.1 0.0
06/01:00pm 23.0 21.7 9.8 43 7.3 NNE 7 15 4 8 1017.8 1017.5 0.0
06/12:30pm 22.4 21.4 10.2 46 6.7 N 6 13 3 7 1018.6 1018.3 0.0
06/12:00pm 22.0 20.9 10.5 48 6.4 NW 7 17 4 9 1019.2 1018.9 0.0
06/11:30am 21.6 20.9 11.3 52 5.8 N 6 13 3 7 1019.6 1019.3 0.0
06/11:00am 20.6 20.4 11.8 57 4.9 N 4 7 2 4 1020.1 1019.8 0.0
06/10:30am 18.8 18.4 11.1 61 4.2 NNE 4 7 2 4 1020.4 1020.1 0.0
06/10:00am 18.4 18.2 11.7 65 3.7 ESE 4 9 2 5 1020.7 1020.4 0.0
06/09:30am 16.1 15.4 10.2 68 3.1 SE 4 7 2 4 1020.9 1020.6 0.0
06/09:00am 14.3 13.5 9.5 73 2.5 SE 4 6 2 3 1020.7 1020.4 0.0
06/08:30am 12.1 11.9 9.1 82 1.5 CALM 0 0 0 0 1020.6 1020.3 0.0
06/08:00am 9.1 8.1 7.4 89 0.8 WNW 2 4 1 2 1020.2 1019.9 0.0
06/07:30am 6.5 4.3 5.3 92 0.5 WNW 6 7 3 4 1020.1 1019.8 0.0
06/07:00am 5.2 3.4 3.7 90 0.6 WNW 2 6 1 3 1019.8 1019.5 0.0
06/06:30am 5.5 4.1 3.8 89 0.7 CALM 0 0 0 0 1019.5 1019.2 0.0
06/06:00am 6.0 4.8 4.5 90 0.7 CALM 0 0 0 0 1019.4 1019.1 0.0
06/05:30am 6.3 5.1 4.6 89 0.7 CALM 0 0 0 0 1019.1 1018.8 0.0
06/05:00am 6.6 5.1 4.8 88 0.8 NW 2 4 1 2 1019.3 1019.0 0.0
06/04:30am 7.0 5.2 5.5 90 0.7 NW 4 4 2 2 1019.4 1019.1 0.0
06/04:00am 6.5 4.6 5.0 90 0.7 WNW 4 6 2 3 1019.6 1019.3 0.0
06/03:30am 6.6 5.4 4.8 88 0.8 CALM 0 4 0 2 1019.4 1019.1 0.0
06/03:00am 7.2 5.8 5.3 88 0.9 WNW 2 4 1 2 1019.4 1019.1 0.0
06/02:30am 7.1 5.3 5.3 88 0.8 WNW 4 4 2 2 1019.4 1019.1 0.0
06/02:00am 7.2 6.1 4.9 85 1.0 CALM 0 0 0 0 1019.5 1019.2 0.0
06/01:30am 8.0 7.0 5.6 85 1.1 CALM 0 0 0 0 1019.8 1019.5 0.0
06/01:00am 8.2 6.8 5.7 84 1.1 WSW 2 4 1 2 1019.9 1019.7 0.0
06/12:30am 8.2 6.0 5.3 82 1.3 WNW 6 6 3 3 1019.8 1019.5 0.0
06/12:00am 9.0 8.0 5.7 80 1.5 CALM 0 0 0 0 1019.8 1019.5 0.0
 
Date/Time
EST
Temp
°C
App
Temp
°C
Dew
Point
Rel
Hum
%
Delta-T
°C
Wind Press
QNH
hPa
Press
MSL
hPa
Rain
since 9 am
mm
Dir
 
Spd
km/h
Gust
km/h
Spd
kts
Gust
kts
05/11:30pm 9.7 8.7 5.7 76 1.9 CALM 0 0 0 0 1019.9 1019.7 0.0
05/11:00pm 12.0 10.5 6.7 70 2.6 NNW 4 6 2 3 1020.1 1019.8 0.0
05/10:30pm 10.8 8.8 6.2 73 2.2 WNW 6 7 3 4 1019.9 1019.7 0.0
05/10:00pm 10.4 8.4 6.2 75 2.0 WNW 6 6 3 3 1019.9 1019.7 0.0
05/09:30pm 10.8 8.8 6.2 73 2.2 WNW 6 6 3 3 1020.2 1019.9 0.0
05/09:00pm 11.1 9.4 6.0 71 2.4 WNW 4 6 2 3 1019.9 1019.7 0.0
05/08:30pm 11.7 10.4 5.8 67 2.8 WSW 2 6 1 3 1019.8 1019.5 0.0
05/08:00pm 12.9 11.6 6.0 63 3.3 W 2 4 1 2 1019.6 1019.3 0.0
05/07:30pm 13.8 12.9 5.9 59 3.8 CALM 0 2 0 1 1019.4 1019.1 0.0
05/07:00pm 16.2 15.4 6.3 52 4.9 CALM 0 0 0 0 1019.2 1018.9 0.0
05/06:30pm 16.4 15.4 5.7 49 5.2 CALM 0 0 0 0 1019.1 1018.8 0.0
05/06:00pm 18.3 17.3 5.5 43 6.3 CALM 0 0 0 0 1018.8 1018.5 0.0
05/05:30pm 20.0 18.2 5.6 39 7.2 SE 4 4 2 2 1018.7 1018.4 0.0
05/05:00pm 21.8 19.7 5.7 35 8.1 SSE 6 7 3 4 1018.5 1018.2 0.0
05/04:30pm 23.1 21.3 5.5 32 9.0 NE 4 6 2 3 1018.4 1018.1 0.0
05/04:00pm 22.8 20.0 5.3 32 8.8 ESE 9 13 5 7 1018.3 1018.0 0.0
05/03:30pm 23.8 21.9 6.6 33 9.0 E 6 15 3 8 1018.4 1018.1 0.0
05/03:00pm 23.6 21.4 6.4 33 8.9 E 7 13 4 7 1018.4 1018.1 0.0
05/02:30pm 23.3 20.4 6.6 34 8.7 NE 11 20 6 11 1018.5 1018.2 0.0
05/02:00pm 22.9 19.2 6.2 34 8.6 NE 15 22 8 12 1018.7 1018.4 0.0
05/01:30pm 22.9 19.6 6.2 34 8.6 E 13 22 7 12 1019.1 1018.8 0.0
05/01:00pm 22.9 21.2 7.4 37 8.1 ESE 6 15 3 8 1019.4 1019.1 0.0
05/12:30pm 22.3 19.9 6.9 37 8.0 ENE 9 22 5 12 1019.8 1019.5 0.0

Other Formats:

Comma delimited format used in spreadsheet applications
http://www.bom.gov.au/fwo/IDQ60801/IDQ60801.94399.axf

JavaScript Object Notation format (JSON) in row-major order
http://www.bom.gov.au/fwo/IDQ60801/IDQ60801.94399.json